Terminal Aerodrome Forecast
Issued by NWS Grand Rapids, MI

Home | Current Version | Previous Version | Text Only | Print | Product List | Glossary On
Versions: 1 2 3 4 5 6 7 8 9 10 11 12 13 14 15 16 17 18 19 20 21 22 23 24 25 26 27 28 29
000
FTUS43 KGRR 142340
TAFGRR
TAF
KGRR 142340Z 1500/1524 19005KT 2SM -SN BKN035
     FM150100 20006KT 4SM -SN OVC035
     FM151000 23008KT 1 1/2SM -SN OVC015
     FM151700 27012G21KT 4SM -SN OVC015=

USA.gov is the U.S. government's official web portal to all federal, state and local government web resources and services.